N301DK KASE-KTEX
Flight info
| Callsign | N301DK |
|---|---|
| Flight time | 0h 34m |
| Altitude | 20000 |
| Route | LINDZ1 LINDZ SLOLM MTJ ETL |
| Aircraft | B350/L-SBGRW/S |
Departure
| Time | 2026-04-30 20:01 |
|---|---|
| Airport | Aspen-Pitkin County Airport (Sardy Field) (KASE) |
Arrival
| Time | 2026-04-30 20:36 |
|---|---|
| Airport | Telluride Regional Airport (KTEX) |
| Time | Latitude | Longitude | Altitude | Speed | Heading |
|---|---|---|---|---|---|
| 2026-04-30 19:39 | 39.22178 | -106.86660 | 7762 ft | 0 kts | 69° |
| 2026-04-30 19:39 | 39.22179 | -106.86658 | 7762 ft | 0 kts | 69° |
| 2026-04-30 19:58 | 39.22181 | -106.86644 | 7757 ft | 8 kts | 99° |
| 2026-04-30 19:58 | 39.22107 | -106.86589 | 7769 ft | 15 kts | 176° |
| 2026-04-30 19:59 | 39.21979 | -106.86568 | 7782 ft | 15 kts | 167° |
| 2026-04-30 19:59 | 39.21829 | -106.86514 | 7792 ft | 29 kts | 160° |
| 2026-04-30 19:59 | 39.21504 | -106.86375 | 7818 ft | 9 kts | 166° |
| 2026-04-30 20:00 | 39.21459 | -106.86372 | 7821 ft | 9 kts | 215° |
| 2026-04-30 20:00 | 39.21433 | -106.86424 | 7820 ft | 12 kts | 248° |
| 2026-04-30 20:00 | 39.21533 | -106.86510 | 7818 ft | 49 kts | 341° |
| 2026-04-30 20:00 | 39.22159 | -106.86797 | 7805 ft | 133 kts | 343° |
| 2026-04-30 20:01 | 39.24204 | -106.88387 | 8254 ft | 214 kts | 306° |
| 2026-04-30 20:01 | 39.24916 | -106.90151 | 8786 ft | 218 kts | 301° |
| 2026-04-30 20:01 | 39.25517 | -106.91931 | 9548 ft | 212 kts | 294° |
| 2026-04-30 20:02 | 39.26931 | -106.95089 | 10854 ft | 196 kts | 310° |
| 2026-04-30 20:02 | 39.27764 | -106.96461 | 11432 ft | 193 kts | 309° |
| 2026-04-30 20:03 | 39.29097 | -106.98754 | 12378 ft | 192 kts | 307° |
| 2026-04-30 20:03 | 39.29893 | -107.00133 | 12951 ft | 190 kts | 307° |
| 2026-04-30 20:03 | 39.30659 | -107.01466 | 13461 ft | 180 kts | 307° |
| 2026-04-30 20:03 | 39.31397 | -107.02751 | 13920 ft | 177 kts | 307° |
| 2026-04-30 20:04 | 39.32125 | -107.04016 | 14331 ft | 175 kts | 306° |
| 2026-04-30 20:04 | 39.32848 | -107.05274 | 14759 ft | 174 kts | 306° |
| 2026-04-30 20:04 | 39.33572 | -107.06528 | 15206 ft | 174 kts | 306° |
| 2026-04-30 20:05 | 39.35015 | -107.09046 | 16097 ft | 174 kts | 306° |
| 2026-04-30 20:05 | 39.35739 | -107.10302 | 16515 ft | 175 kts | 306° |
| 2026-04-30 20:05 | 39.37188 | -107.12827 | 17357 ft | 175 kts | 305° |
| 2026-04-30 20:06 | 39.37914 | -107.14092 | 17790 ft | 175 kts | 304° |
| 2026-04-30 20:06 | 39.38455 | -107.15493 | 18215 ft | 175 kts | 284° |
| 2026-04-30 20:06 | 39.38587 | -107.17050 | 18628 ft | 175 kts | 266° |
| 2026-04-30 20:06 | 39.38336 | -107.18590 | 19073 ft | 175 kts | 257° |
| 2026-04-30 20:07 | 39.38044 | -107.20115 | 19524 ft | 175 kts | 258° |
| 2026-04-30 20:07 | 39.37754 | -107.21641 | 19965 ft | 175 kts | 258° |
| 2026-04-30 20:07 | 39.37148 | -107.24764 | 20917 ft | 182 kts | 258° |
| 2026-04-30 20:08 | 39.36835 | -107.26381 | 21192 ft | 195 kts | 258° |
| 2026-04-30 20:08 | 39.36491 | -107.28172 | 21205 ft | 214 kts | 258° |
| 2026-04-30 20:08 | 39.36116 | -107.30118 | 21204 ft | 231 kts | 258° |
| 2026-04-30 20:08 | 39.35718 | -107.32176 | 21210 ft | 241 kts | 258° |
| 2026-04-30 20:09 | 39.35302 | -107.34308 | 21212 ft | 249 kts | 258° |
| 2026-04-30 20:09 | 39.34883 | -107.36473 | 21212 ft | 254 kts | 257° |
| 2026-04-30 20:09 | 39.34005 | -107.40946 | 21204 ft | 260 kts | 257° |
| 2026-04-30 20:10 | 39.33109 | -107.45531 | 21200 ft | 266 kts | 257° |
| 2026-04-30 20:10 | 39.32652 | -107.47856 | 21193 ft | 268 kts | 257° |
| 2026-04-30 20:10 | 39.32191 | -107.50200 | 21183 ft | 269 kts | 257° |
| 2026-04-30 20:11 | 39.31263 | -107.54912 | 21172 ft | 272 kts | 257° |
| 2026-04-30 20:11 | 39.30653 | -107.57230 | 21148 ft | 274 kts | 248° |
| 2026-04-30 20:11 | 39.29724 | -107.59379 | 21139 ft | 276 kts | 238° |
| 2026-04-30 20:12 | 39.27023 | -107.62903 | 21126 ft | 280 kts | 218° |
| 2026-04-30 20:12 | 39.25324 | -107.64150 | 21126 ft | 282 kts | 208° |
| 2026-04-30 20:12 | 39.23463 | -107.64987 | 21130 ft | 285 kts | 199° |
| 2026-04-30 20:13 | 39.21537 | -107.65628 | 21130 ft | 285 kts | 199° |
| 2026-04-30 20:13 | 39.19624 | -107.66299 | 21132 ft | 285 kts | 199° |
| 2026-04-30 20:13 | 39.17711 | -107.66968 | 21128 ft | 285 kts | 199° |
| 2026-04-30 20:13 | 39.15794 | -107.67629 | 21127 ft | 286 kts | 199° |
| 2026-04-30 20:14 | 39.13875 | -107.68290 | 21122 ft | 285 kts | 199° |
| 2026-04-30 20:14 | 39.11957 | -107.68955 | 21123 ft | 286 kts | 199° |
| 2026-04-30 20:14 | 39.10039 | -107.69620 | 21119 ft | 286 kts | 199° |
| 2026-04-30 20:14 | 39.08117 | -107.70277 | 21119 ft | 285 kts | 199° |
| 2026-04-30 20:15 | 39.06202 | -107.70943 | 21115 ft | 285 kts | 199° |
| 2026-04-30 20:15 | 39.04286 | -107.71606 | 21112 ft | 285 kts | 199° |
| 2026-04-30 20:15 | 39.02372 | -107.72265 | 21109 ft | 284 kts | 199° |
| 2026-04-30 20:15 | 39.00465 | -107.72921 | 21107 ft | 284 kts | 199° |
| 2026-04-30 20:16 | 38.98552 | -107.73582 | 21102 ft | 284 kts | 199° |
| 2026-04-30 20:16 | 38.96644 | -107.74237 | 21071 ft | 285 kts | 199° |
| 2026-04-30 20:16 | 38.94729 | -107.74895 | 21067 ft | 285 kts | 199° |
| 2026-04-30 20:16 | 38.92814 | -107.75555 | 21062 ft | 285 kts | 200° |
| 2026-04-30 20:17 | 38.90900 | -107.76213 | 21063 ft | 285 kts | 200° |
| 2026-04-30 20:17 | 38.88984 | -107.76871 | 21059 ft | 285 kts | 200° |
| 2026-04-30 20:17 | 38.87070 | -107.77531 | 21056 ft | 285 kts | 200° |
| 2026-04-30 20:17 | 38.85153 | -107.78191 | 21054 ft | 285 kts | 200° |
| 2026-04-30 20:18 | 38.83237 | -107.78843 | 21057 ft | 284 kts | 200° |
| 2026-04-30 20:18 | 38.81327 | -107.79497 | 21053 ft | 284 kts | 200° |
| 2026-04-30 20:18 | 38.79416 | -107.80153 | 21057 ft | 284 kts | 200° |
| 2026-04-30 20:18 | 38.77524 | -107.80801 | 21053 ft | 285 kts | 200° |
| 2026-04-30 20:19 | 38.75611 | -107.81454 | 21052 ft | 284 kts | 200° |
| 2026-04-30 20:19 | 38.73698 | -107.82109 | 21054 ft | 284 kts | 200° |
| 2026-04-30 20:19 | 38.71785 | -107.82763 | 21057 ft | 284 kts | 200° |
| 2026-04-30 20:19 | 38.69878 | -107.83414 | 21056 ft | 284 kts | 200° |
| 2026-04-30 20:20 | 38.67962 | -107.84067 | 21056 ft | 284 kts | 200° |
| 2026-04-30 20:20 | 38.66054 | -107.84722 | 21052 ft | 284 kts | 200° |
| 2026-04-30 20:20 | 38.64144 | -107.85377 | 21067 ft | 283 kts | 200° |
| 2026-04-30 20:20 | 38.62254 | -107.86011 | 21067 ft | 284 kts | 200° |
| 2026-04-30 20:21 | 38.60346 | -107.86658 | 21063 ft | 283 kts | 200° |
| 2026-04-30 20:21 | 38.58443 | -107.87319 | 21062 ft | 284 kts | 200° |
| 2026-04-30 20:21 | 38.56535 | -107.87967 | 21064 ft | 284 kts | 200° |
| 2026-04-30 20:21 | 38.54629 | -107.88609 | 21067 ft | 283 kts | 200° |
| 2026-04-30 20:22 | 38.52721 | -107.89258 | 21062 ft | 283 kts | 200° |
| 2026-04-30 20:22 | 38.50851 | -107.90010 | 21080 ft | 280 kts | 208° |
| 2026-04-30 20:22 | 38.49136 | -107.91139 | 21085 ft | 277 kts | 216° |
| 2026-04-30 20:22 | 38.47496 | -107.92431 | 21073 ft | 277 kts | 216° |
| 2026-04-30 20:23 | 38.45838 | -107.93700 | 21072 ft | 277 kts | 216° |
| 2026-04-30 20:23 | 38.44187 | -107.94973 | 21069 ft | 277 kts | 216° |
| 2026-04-30 20:23 | 38.42564 | -107.96238 | 20671 ft | 266 kts | 216° |
| 2026-04-30 20:23 | 38.40983 | -107.97466 | 19490 ft | 272 kts | 215° |
| 2026-04-30 20:24 | 38.39345 | -107.98727 | 19074 ft | 270 kts | 214° |
| 2026-04-30 20:24 | 38.37788 | -107.99921 | 18744 ft | 257 kts | 215° |
| 2026-04-30 20:24 | 38.36254 | -108.01113 | 17893 ft | 259 kts | 214° |
| 2026-04-30 20:24 | 38.34720 | -108.02305 | 17100 ft | 256 kts | 214° |
| 2026-04-30 20:25 | 38.31739 | -108.04591 | 16080 ft | 232 kts | 214° |
| 2026-04-30 20:25 | 38.30419 | -108.05598 | 16073 ft | 212 kts | 214° |
| 2026-04-30 20:26 | 38.27838 | -108.07599 | 16075 ft | 230 kts | 214° |
| 2026-04-30 20:26 | 38.24901 | -108.09884 | 16096 ft | 261 kts | 214° |
| 2026-04-30 20:26 | 38.23348 | -108.11079 | 16102 ft | 253 kts | 214° |
| 2026-04-30 20:27 | 38.20478 | -108.13263 | 15705 ft | 233 kts | 214° |
| 2026-04-30 20:27 | 38.17765 | -108.15348 | 15699 ft | 225 kts | 214° |
| 2026-04-30 20:28 | 38.15110 | -108.17389 | 15700 ft | 223 kts | 214° |
| 2026-04-30 20:28 | 38.12470 | -108.19415 | 15698 ft | 221 kts | 214° |
| 2026-04-30 20:29 | 38.09842 | -108.21429 | 15711 ft | 221 kts | 214° |
| 2026-04-30 20:30 | 38.05485 | -108.22697 | 14505 ft | 224 kts | 170° |
| 2026-04-30 20:30 | 38.02049 | -108.19334 | 13006 ft | 188 kts | 118° |
| 2026-04-30 20:31 | 38.00417 | -108.14164 | 13022 ft | 219 kts | 112° |
| 2026-04-30 20:32 | 37.99078 | -108.08648 | 12752 ft | 216 kts | 104° |
| 2026-04-30 20:32 | 37.98488 | -108.05586 | 12330 ft | 138 kts | 98° |
| 2026-04-30 20:33 | 37.98386 | -108.04307 | 12011 ft | 153 kts | 92° |
| 2026-04-30 20:33 | 37.97910 | -108.01794 | 11749 ft | 149 kts | 114° |
| 2026-04-30 20:33 | 37.97544 | -108.00496 | 11521 ft | 160 kts | 109° |
| 2026-04-30 20:34 | 37.96884 | -107.97946 | 11008 ft | 140 kts | 105° |
| 2026-04-30 20:34 | 37.96312 | -107.95491 | 10351 ft | 144 kts | 102° |
| 2026-04-30 20:35 | 37.96095 | -107.94292 | 9840 ft | 140 kts | 105° |
| 2026-04-30 20:35 | 37.95877 | -107.93077 | 9339 ft | 143 kts | 102° |
| 2026-04-30 20:35 | 37.95383 | -107.90893 | 9028 ft | 84 kts | 102° |
| 2026-04-30 20:36 | 37.95293 | -107.90462 | 9040 ft | 45 kts | 104° |
| 2026-04-30 20:36 | 37.95227 | -107.90202 | 9049 ft | 24 kts | 98° |
| 2026-04-30 20:36 | 37.95401 | -107.90259 | 9054 ft | 7 kts | 336° |
| 2026-04-30 20:37 | 37.95411 | -107.90285 | 9054 ft | 0 kts | 286° |